createdAt,value
2023-01-09T00:01:49.423Z,23.45
2023-01-09T00:04:12.684Z,22.80
2023-01-09T00:06:35.440Z,22.85
2023-01-09T00:08:58.028Z,23.98
2023-01-09T00:11:21.047Z,22.20
2023-01-09T00:13:43.654Z,22.08
2023-01-09T00:16:08.399Z,22.73
2023-01-09T00:18:31.091Z,22.40
2023-01-09T00:20:53.731Z,22.33
2023-01-09T00:23:16.256Z,21.20
2023-01-09T00:25:40.013Z,21.65
2023-01-09T00:28:03.908Z,20.42
2023-01-09T00:30:27.348Z,19.30
2023-01-09T00:32:49.991Z,21.98
2023-01-09T00:35:16.780Z,20.63
2023-01-09T00:37:39.490Z,18.00
2023-01-09T00:40:02.334Z,19.73
2023-01-09T00:42:28.346Z,18.77
2023-01-09T00:45:14.490Z,21.02
2023-01-09T00:47:43.139Z,19.20
2023-01-09T00:50:10.303Z,15.98
2023-01-09T00:52:36.017Z,18.27
2023-01-09T00:54:59.718Z,18.33
2023-01-09T00:57:22.398Z,16.38
2023-01-09T00:59:45.138Z,16.70
2023-01-09T01:02:08.034Z,21.42
2023-01-09T01:04:49.294Z,20.23
2023-01-09T01:07:30.418Z,18.77
2023-01-09T01:09:53.134Z,18.30
2023-01-09T01:12:15.761Z,18.63
2023-01-09T01:14:39.616Z,16.98
2023-01-09T01:17:03.029Z,18.77
2023-01-09T01:19:25.654Z,19.02
2023-01-09T01:21:48.223Z,19.48
2023-01-09T01:24:11.036Z,16.70
2023-01-09T01:26:33.601Z,19.08
2023-01-09T01:28:56.263Z,17.40
2023-01-09T01:31:19.816Z,19.33
2023-01-09T01:33:42.558Z,17.85
2023-01-09T01:36:08.282Z,15.47
2023-01-09T01:38:31.727Z,17.25
2023-01-09T01:40:55.233Z,15.95
2023-01-09T01:43:17.782Z,16.90
2023-01-09T01:45:40.889Z,16.90
2023-01-09T01:48:14.137Z,17.50
2023-01-09T01:50:48.682Z,16.25
2023-01-09T01:53:19.088Z,15.40
2023-01-09T01:55:47.200Z,14.95
2023-01-09T01:58:13.459Z,15.68
2023-01-09T02:00:40.452Z,16.40
2023-01-09T02:03:03.308Z,15.63
2023-01-09T02:05:25.993Z,16.95
2023-01-09T02:07:48.615Z,15.75
2023-01-09T02:10:11.299Z,17.45
2023-01-09T02:12:33.917Z,15.83
2023-01-09T02:15:01.022Z,18.02
2023-01-09T02:17:37.503Z,15.85
2023-01-09T02:20:27.687Z,17.17
2023-01-09T02:22:56.039Z,18.63
2023-01-09T02:25:43.301Z,17.87
2023-01-09T02:28:24.448Z,17.58
2023-01-09T02:30:54.711Z,20.98
2023-01-09T02:33:52.033Z,21.10
2023-01-09T02:36:14.703Z,17.92
2023-01-09T02:38:46.292Z,20.80
2023-01-09T02:41:23.090Z,18.95
2023-01-09T02:43:45.737Z,21.13
2023-01-09T02:46:22.919Z,21.77
2023-01-09T02:48:46.612Z,22.33
2023-01-09T02:51:26.485Z,20.40
2023-01-09T02:54:04.261Z,21.83
2023-01-09T02:56:45.482Z,23.45
2023-01-09T02:59:21.296Z,20.05
2023-01-09T03:02:01.991Z,19.75
2023-01-09T03:04:30.526Z,23.17
2023-01-09T03:07:13.118Z,22.88
2023-01-09T03:09:40.024Z,22.70
2023-01-09T03:12:14.436Z,22.23
2023-01-09T03:14:41.817Z,23.27
2023-01-09T03:17:07.923Z,23.03
2023-01-09T03:19:32.229Z,23.95
2023-01-09T03:21:56.020Z,23.92
2023-01-09T03:24:18.678Z,22.90
2023-01-09T03:26:41.571Z,23.88
2023-01-09T03:29:04.771Z,24.73
2023-01-09T03:31:27.810Z,23.65
2023-01-09T03:33:51.064Z,24.75
2023-01-09T03:36:14.832Z,23.52
2023-01-09T03:38:37.457Z,24.38
2023-01-09T03:41:01.160Z,24.43
2023-01-09T03:43:23.868Z,26.98
2023-01-09T03:45:46.571Z,23.27
2023-01-09T03:48:09.363Z,25.05
2023-01-09T03:50:32.074Z,22.77
2023-01-09T03:52:55.778Z,22.97
2023-01-09T03:55:18.567Z,23.52
2023-01-09T03:57:41.282Z,25.15
2023-01-09T04:00:04.582Z,24.30
2023-01-09T04:02:35.156Z,22.70
2023-01-09T04:04:57.703Z,24.40
2023-01-09T04:07:20.276Z,24.05
2023-01-09T04:09:43.169Z,24.85
2023-01-09T04:12:06.137Z,23.05
2023-01-09T04:14:28.749Z,19.92
2023-01-09T04:16:51.494Z,23.93
2023-01-09T04:19:14.363Z,24.52
2023-01-09T04:21:37.173Z,25.42
2023-01-09T04:23:59.979Z,23.33
2023-01-09T04:26:22.556Z,25.25
2023-01-09T04:28:45.537Z,23.63
2023-01-09T04:31:08.062Z,24.55
2023-01-09T04:33:31.019Z,23.70
2023-01-09T04:35:53.645Z,23.05
2023-01-09T04:38:16.468Z,24.15
2023-01-09T04:40:39.357Z,22.97
2023-01-09T04:43:01.972Z,25.67
2023-01-09T04:45:24.588Z,26.63
2023-01-09T04:47:47.969Z,25.48
2023-01-09T04:50:12.465Z,24.27
2023-01-09T04:52:35.229Z,23.80
2023-01-09T04:54:58.500Z,24.17
2023-01-09T04:57:21.411Z,23.20
2023-01-09T04:59:44.049Z,24.35
2023-01-09T05:02:07.039Z,24.45
2023-01-09T05:04:30.373Z,24.83
2023-01-09T05:06:53.119Z,22.90
2023-01-09T05:09:15.855Z,25.20
2023-01-09T05:11:38.521Z,29.80
2023-01-09T05:14:01.172Z,25.35
2023-01-09T05:16:23.830Z,25.00
2023-01-09T05:18:46.495Z,24.60
2023-01-09T05:21:09.160Z,26.60
2023-01-09T05:23:32.041Z,23.65
2023-01-09T05:25:54.714Z,24.88
2023-01-09T05:28:17.284Z,24.37
2023-01-09T05:30:39.989Z,24.00
2023-01-09T05:33:02.552Z,26.70
2023-01-09T05:35:25.135Z,24.35
2023-01-09T05:37:47.669Z,24.38
2023-01-09T05:40:11.035Z,26.10
2023-01-09T05:42:33.648Z,24.00
2023-01-09T05:44:56.594Z,24.60
2023-01-09T05:47:19.209Z,23.05
2023-01-09T05:49:42.037Z,25.80
2023-01-09T05:52:05.253Z,23.47
2023-01-09T05:54:27.920Z,25.17
2023-01-09T05:56:50.428Z,23.50
2023-01-09T05:59:13.268Z,25.08
2023-01-09T06:01:36.076Z,24.58
2023-01-09T06:03:58.762Z,26.57
2023-01-09T06:06:21.353Z,28.20
2023-01-09T06:08:43.966Z,25.70
2023-01-09T06:11:06.551Z,25.08
2023-01-09T06:13:29.150Z,24.63
2023-01-09T06:15:51.855Z,31.23
2023-01-09T06:18:14.871Z,31.75
2023-01-09T06:20:37.522Z,24.35
2023-01-09T06:23:00.185Z,25.92
2023-01-09T06:25:23.263Z,26.77
2023-01-09T06:27:47.743Z,24.13
2023-01-09T06:30:11.077Z,26.48
2023-01-09T06:32:33.763Z,25.17
2023-01-09T06:34:56.457Z,26.75
2023-01-09T06:37:19.246Z,25.45
2023-01-09T06:39:41.998Z,24.80
2023-01-09T06:42:04.804Z,25.98
2023-01-09T06:44:27.551Z,26.70
2023-01-09T06:46:53.869Z,24.25
2023-01-09T06:49:23.516Z,25.10
2023-01-09T06:51:46.368Z,24.60
2023-01-09T06:54:09.268Z,27.65
2023-01-09T06:56:36.001Z,27.27
2023-01-09T06:58:58.701Z,23.00
2023-01-09T07:01:21.604Z,25.50
2023-01-09T07:03:45.117Z,25.07
2023-01-09T07:06:09.662Z,24.75
2023-01-09T07:08:34.522Z,26.52
2023-01-09T07:10:59.667Z,25.50
2023-01-09T07:13:22.932Z,25.33
2023-01-09T07:15:46.245Z,25.90
2023-01-09T07:18:09.447Z,26.33
2023-01-09T07:20:32.302Z,24.08
2023-01-09T07:22:55.447Z,25.55
2023-01-09T07:25:18.248Z,23.45
2023-01-09T07:27:41.239Z,24.90
2023-01-09T07:30:05.898Z,23.17
2023-01-09T07:32:28.652Z,23.00
2023-01-09T07:34:51.779Z,24.33
2023-01-09T07:37:14.685Z,25.75
2023-01-09T07:39:37.827Z,23.70
2023-01-09T07:42:00.502Z,24.15
2023-01-09T07:44:23.787Z,22.27
2023-01-09T07:46:46.435Z,23.02
2023-01-09T07:49:09.422Z,25.25
2023-01-09T07:51:32.382Z,26.40
2023-01-09T07:53:55.107Z,25.60
2023-01-09T07:56:17.998Z,26.17
2023-01-09T07:58:41.759Z,26.15
2023-01-09T08:01:05.379Z,23.98
2023-01-09T08:03:28.537Z,28.70
2023-01-09T08:05:51.758Z,28.10
2023-01-09T08:08:15.262Z,27.25
2023-01-09T08:10:37.935Z,24.23
2023-01-09T08:13:00.604Z,25.40
2023-01-09T08:15:23.223Z,26.10
2023-01-09T08:17:47.085Z,27.67
2023-01-09T08:20:12.279Z,27.50
2023-01-09T08:22:35.044Z,29.85
2023-01-09T08:24:57.798Z,26.77
2023-01-09T08:27:20.508Z,25.93
2023-01-09T08:29:44.107Z,28.15
2023-01-09T08:32:07.014Z,27.85
2023-01-09T08:34:30.568Z,30.35
2023-01-09T08:36:54.212Z,26.67
2023-01-09T08:39:17.068Z,25.30
2023-01-09T08:41:58.113Z,29.00
2023-01-09T08:45:00.385Z,27.55
2023-01-09T08:47:24.864Z,27.58
2023-01-09T08:49:47.615Z,28.80
2023-01-09T08:52:10.717Z,29.27
2023-01-09T08:54:34.162Z,26.83
2023-01-09T08:56:57.286Z,28.85
2023-01-09T08:59:20.160Z,31.75
2023-01-09T09:01:43.480Z,28.55
2023-01-09T09:04:06.470Z,26.03
2023-01-09T09:06:29.141Z,29.52
2023-01-09T09:08:51.818Z,27.58
2023-01-09T09:11:14.855Z,32.47
2023-01-09T09:13:37.715Z,29.55
2023-01-09T09:16:00.507Z,29.47
2023-01-09T09:18:23.311Z,28.58
2023-01-09T09:20:46.107Z,30.40
2023-01-09T09:23:08.833Z,32.28
2023-01-09T09:25:31.692Z,33.45
2023-01-09T09:27:56.432Z,30.93
2023-01-09T09:30:20.902Z,29.60
2023-01-09T09:32:43.570Z,31.55
2023-01-09T09:35:06.995Z,28.95
2023-01-09T09:37:29.611Z,35.08
2023-01-09T09:39:53.105Z,28.20
2023-01-09T09:42:46.571Z,29.85
2023-01-09T09:45:43.165Z,31.20
2023-01-09T09:48:41.473Z,29.08
2023-01-09T09:51:36.410Z,31.30
2023-01-09T09:54:22.691Z,30.50
2023-01-09T09:56:53.310Z,30.42
2023-01-09T09:59:20.377Z,31.85
2023-01-09T10:01:51.659Z,28.35
2023-01-09T10:04:18.690Z,27.73
2023-01-09T10:06:44.949Z,29.63
2023-01-09T10:09:17.038Z,31.13
2023-01-09T10:11:52.786Z,32.38
2023-01-09T10:14:23.540Z,33.75
2023-01-09T10:17:06.298Z,30.95
2023-01-09T10:19:44.428Z,30.13
2023-01-09T10:22:19.305Z,33.90
2023-01-09T10:25:06.868Z,32.35
2023-01-09T10:27:54.509Z,27.60
2023-01-09T10:30:46.125Z,28.95
2023-01-09T10:33:45.759Z,30.50
2023-01-09T10:36:26.573Z,28.10
2023-01-09T10:38:53.205Z,32.50
2023-01-09T10:41:29.108Z,30.17
2023-01-09T10:44:19.407Z,29.02
2023-01-09T10:46:49.153Z,30.67
2023-01-09T10:49:18.849Z,29.20
2023-01-09T10:51:48.134Z,26.13
2023-01-09T10:54:16.381Z,32.55
2023-01-09T10:56:45.307Z,30.70
2023-01-09T10:59:09.742Z,33.27
2023-01-09T11:01:37.668Z,35.05
2023-01-09T11:04:02.336Z,34.75
2023-01-09T11:06:32.748Z,35.40
2023-01-09T11:08:59.184Z,34.40
2023-01-09T11:11:43.101Z,32.03
2023-01-09T11:14:31.622Z,33.60
2023-01-09T11:16:56.920Z,30.35
2023-01-09T11:19:20.114Z,32.00
2023-01-09T11:21:43.131Z,31.92
2023-01-09T11:24:21.474Z,35.47
2023-01-09T11:26:47.405Z,33.28
2023-01-09T11:29:21.216Z,34.40
2023-01-09T11:31:53.461Z,33.55
2023-01-09T11:34:22.028Z,33.58
2023-01-09T11:36:45.673Z,36.77
2023-01-09T11:39:25.736Z,37.25
2023-01-09T11:41:53.645Z,34.00
2023-01-09T11:44:16.463Z,34.70
2023-01-09T11:46:44.100Z,34.90
2023-01-09T11:49:12.983Z,34.73
2023-01-09T11:51:36.990Z,35.65
2023-01-09T11:54:24.534Z,37.10
2023-01-09T11:56:48.616Z,36.22
2023-01-09T11:59:14.457Z,35.35
2023-01-09T12:01:37.202Z,36.43
2023-01-09T12:04:17.817Z,38.00
2023-01-09T12:06:59.119Z,36.25
2023-01-09T12:09:52.870Z,34.22
2023-01-09T12:12:35.426Z,32.20
2023-01-09T12:15:16.084Z,34.17
2023-01-09T12:18:05.555Z,34.17
2023-01-09T12:20:38.451Z,32.78
2023-01-09T12:23:23.353Z,34.92
2023-01-09T12:26:06.265Z,35.80
2023-01-09T12:28:35.502Z,34.97
2023-01-09T12:31:26.241Z,36.95
2023-01-09T12:33:57.615Z,34.35
2023-01-09T12:36:37.323Z,34.08
2023-01-09T12:39:09.498Z,33.50
2023-01-09T12:41:38.130Z,32.30
2023-01-09T12:44:39.212Z,33.70
2023-01-09T12:47:23.676Z,31.10
2023-01-09T12:50:21.204Z,36.10
2023-01-09T12:52:57.039Z,37.22
2023-01-09T12:55:23.995Z,36.83
2023-01-09T12:57:51.162Z,40.75
2023-01-09T13:00:23.822Z,40.63
2023-01-09T13:03:03.646Z,41.53
2023-01-09T13:05:37.631Z,43.33
2023-01-09T13:08:08.568Z,45.33
2023-01-09T13:10:42.160Z,47.67
2023-01-09T13:13:38.459Z,42.83
2023-01-09T13:16:05.622Z,43.58
2023-01-09T13:19:12.160Z,44.60
2023-01-09T13:21:35.509Z,37.40
2023-01-09T13:24:11.037Z,36.88
2023-01-09T13:26:45.644Z,35.35
2023-01-09T13:29:26.698Z,32.22
2023-01-09T13:32:08.528Z,31.65
2023-01-09T13:34:34.128Z,34.87
2023-01-09T13:36:58.799Z,31.73
2023-01-09T13:39:40.419Z,32.90
2023-01-09T13:42:25.449Z,36.20
2023-01-09T13:44:51.189Z,32.40
2023-01-09T13:47:22.932Z,32.70
2023-01-09T13:49:45.499Z,31.25
2023-01-09T13:52:36.802Z,31.58
2023-01-09T13:55:24.402Z,29.83
2023-01-09T13:58:05.753Z,31.20
2023-01-09T14:00:28.384Z,29.07
2023-01-09T14:02:56.614Z,30.75
2023-01-09T14:05:25.032Z,30.48
2023-01-09T14:07:49.989Z,31.52
2023-01-09T14:10:25.871Z,33.78
2023-01-09T14:12:49.464Z,33.33
2023-01-09T14:15:26.983Z,32.78
2023-01-09T14:18:15.178Z,32.40
2023-01-09T14:20:41.646Z,34.75
2023-01-09T14:23:28.006Z,67.65
2023-01-09T14:25:48.222Z,59.53
2023-01-09T14:28:22.975Z,57.53
2023-01-09T14:30:54.379Z,49.15
2023-01-09T14:33:20.213Z,47.47
2023-01-09T14:35:54.632Z,51.45
2023-01-09T14:38:37.755Z,41.97
2023-01-09T14:41:21.199Z,42.22
2023-01-09T14:44:06.553Z,54.50
2023-01-09T14:46:37.763Z,54.38
2023-01-09T14:49:07.459Z,54.50
2023-01-09T14:51:35.599Z,57.53
2023-01-09T14:54:01.660Z,55.30
2023-01-09T14:56:28.715Z,47.13
2023-01-09T14:59:12.805Z,43.72
2023-01-09T15:01:36.440Z,43.95
2023-01-09T15:04:03.012Z,39.40
2023-01-09T15:06:29.151Z,42.15
2023-01-09T15:09:24.573Z,45.15
2023-01-09T15:11:47.655Z,41.10
2023-01-09T15:14:33.069Z,43.05
2023-01-09T15:16:56.079Z,41.37
2023-01-09T15:19:19.721Z,40.70
2023-01-09T15:21:56.768Z,44.72
2023-01-09T15:24:22.858Z,44.00
2023-01-09T15:26:53.216Z,41.70
2023-01-09T15:29:20.607Z,45.23
2023-01-09T15:31:45.530Z,41.90
2023-01-09T15:34:17.453Z,48.15
2023-01-09T15:36:40.357Z,45.38
2023-01-09T15:39:06.763Z,51.08
2023-01-09T15:41:49.331Z,51.83
2023-01-09T15:44:21.094Z,55.22
2023-01-09T15:46:46.519Z,50.88
2023-01-09T15:49:12.372Z,56.03
2023-01-09T15:51:35.266Z,55.22
2023-01-09T15:54:00.783Z,50.63
2023-01-09T15:56:25.690Z,45.90
2023-01-09T15:58:52.790Z,47.67
2023-01-09T16:01:35.321Z,49.05
2023-01-09T16:04:18.265Z,47.63
2023-01-09T16:06:49.294Z,50.43
2023-01-09T16:09:41.908Z,49.90
2023-01-09T16:12:04.875Z,51.80
2023-01-09T16:14:38.591Z,53.63
2023-01-09T16:17:07.760Z,57.20
2023-01-09T16:19:47.120Z,53.07
2023-01-09T16:22:31.394Z,51.75
2023-01-09T16:24:57.441Z,54.10
2023-01-09T16:27:27.308Z,52.53
2023-01-09T16:29:57.410Z,55.80
2023-01-09T16:32:24.334Z,55.93
2023-01-09T16:34:52.241Z,52.13
2023-01-09T16:37:14.849Z,48.35
2023-01-09T16:39:38.812Z,48.83
2023-01-09T16:42:20.412Z,51.53
2023-01-09T16:44:43.166Z,47.70
2023-01-09T16:47:05.887Z,43.90
2023-01-09T16:49:29.032Z,46.65
2023-01-09T16:51:51.913Z,49.35
2023-01-09T16:54:15.288Z,49.72
2023-01-09T16:56:39.376Z,53.80
2023-01-09T16:59:02.013Z,57.90
2023-01-09T17:01:25.546Z,67.35
2023-01-09T17:03:48.492Z,61.20
2023-01-09T17:06:31.493Z,53.22
2023-01-09T17:08:54.354Z,47.37
2023-01-09T17:11:31.599Z,49.65
2023-01-09T17:13:54.422Z,53.42
2023-01-09T17:16:18.454Z,51.88
2023-01-09T17:18:41.670Z,51.60
2023-01-09T17:21:04.334Z,55.00
2023-01-09T17:23:27.118Z,54.78
2023-01-09T17:26:11.609Z,55.75
2023-01-09T17:28:35.928Z,55.65
2023-01-09T17:31:10.585Z,51.65
2023-01-09T17:33:33.781Z,53.90
2023-01-09T17:35:56.840Z,52.53
2023-01-09T17:38:19.927Z,51.28
2023-01-09T17:40:43.717Z,56.90
2023-01-09T17:43:06.351Z,55.42
2023-01-09T17:45:29.042Z,56.23
2023-01-09T17:47:52.119Z,56.90
2023-01-09T17:50:19.721Z,60.25
2023-01-09T17:52:42.336Z,64.60
2023-01-09T17:55:05.525Z,65.75
2023-01-09T17:57:28.305Z,57.70
2023-01-09T17:59:50.969Z,57.60
2023-01-09T18:02:18.059Z,56.42
2023-01-09T18:04:40.639Z,54.78
2023-01-09T18:07:03.197Z,63.40
2023-01-09T18:09:25.870Z,59.47
2023-01-09T18:11:48.747Z,57.92
2023-01-09T18:14:13.683Z,55.45
2023-01-09T18:16:37.455Z,58.28
2023-01-09T18:19:01.588Z,61.58
2023-01-09T18:21:26.547Z,59.50
2023-01-09T18:23:50.222Z,59.72
2023-01-09T18:26:20.363Z,62.53
2023-01-09T18:28:42.991Z,59.03
2023-01-09T18:31:06.495Z,56.55
2023-01-09T18:33:29.100Z,59.27
2023-01-09T18:35:52.337Z,54.58
2023-01-09T18:38:16.517Z,58.33
2023-01-09T18:40:39.431Z,60.30
2023-01-09T18:43:07.930Z,56.60
2023-01-09T18:45:31.910Z,63.00
2023-01-09T18:47:55.415Z,62.22
2023-01-09T18:50:18.140Z,66.50
2023-01-09T18:52:40.704Z,62.40
2023-01-09T18:55:03.898Z,66.88
2023-01-09T18:57:26.713Z,59.03
2023-01-09T18:59:50.101Z,61.05
2023-01-09T19:02:24.658Z,62.72
2023-01-09T19:04:47.820Z,61.53
2023-01-09T19:07:10.738Z,58.20
2023-01-09T19:09:33.588Z,63.20
2023-01-09T19:11:56.494Z,58.80
2023-01-09T19:14:19.391Z,57.30
2023-01-09T19:16:42.770Z,58.40
2023-01-09T19:19:06.670Z,61.10
2023-01-09T19:21:29.879Z,62.63
2023-01-09T19:23:52.938Z,58.70
2023-01-09T19:26:24.686Z,61.05
2023-01-09T19:28:47.967Z,63.60
2023-01-09T19:31:11.235Z,58.78
2023-01-09T19:33:34.465Z,55.73
2023-01-09T19:35:57.233Z,57.13
2023-01-09T19:38:22.642Z,56.30
2023-01-09T19:40:45.166Z,55.35
2023-01-09T19:43:07.950Z,60.05
2023-01-09T19:45:30.564Z,54.13
2023-01-09T19:47:53.526Z,57.72
2023-01-09T19:50:17.917Z,51.25
2023-01-09T19:52:43.300Z,50.70
2023-01-09T19:55:06.362Z,46.60
2023-01-09T19:57:29.404Z,51.27
2023-01-09T19:59:52.391Z,47.65
2023-01-09T20:02:15.902Z,47.72
2023-01-09T20:04:38.814Z,49.42
2023-01-09T20:07:01.488Z,47.13
2023-01-09T20:09:27.507Z,42.23
2023-01-09T20:11:50.266Z,47.65
2023-01-09T20:14:14.333Z,50.15
2023-01-09T20:16:37.250Z,48.95
2023-01-09T20:19:07.478Z,49.65
2023-01-09T20:21:30.472Z,44.20
2023-01-09T20:23:55.174Z,44.88
2023-01-09T20:26:18.781Z,43.80
2023-01-09T20:28:41.502Z,45.15
2023-01-09T20:31:05.833Z,45.13
2023-01-09T20:33:28.583Z,46.30
2023-01-09T20:35:51.351Z,48.00
2023-01-09T20:38:14.385Z,46.20
2023-01-09T20:40:37.954Z,47.60
2023-01-09T20:43:00.593Z,52.28
2023-01-09T20:45:23.889Z,48.77
2023-01-09T20:47:46.527Z,46.85
2023-01-09T20:50:10.049Z,45.58
2023-01-09T20:52:32.712Z,44.13
2023-01-09T20:54:55.363Z,46.08
2023-01-09T20:57:18.004Z,47.10
2023-01-09T20:59:40.910Z,45.58
2023-01-09T21:02:03.489Z,42.95
2023-01-09T21:04:26.291Z,44.58
2023-01-09T21:06:50.142Z,43.00
2023-01-09T21:09:13.147Z,45.70
2023-01-09T21:11:35.669Z,40.30
2023-01-09T21:13:58.247Z,43.40
2023-01-09T21:16:24.451Z,43.03
2023-01-09T21:18:48.342Z,38.22
2023-01-09T21:21:16.958Z,39.63
2023-01-09T21:23:44.290Z,39.22
2023-01-09T21:26:11.233Z,40.22
2023-01-09T21:28:40.509Z,40.90
2023-01-09T21:31:03.349Z,39.58
2023-01-09T21:33:26.054Z,41.27
2023-01-09T21:35:53.817Z,40.10
2023-01-09T21:38:16.523Z,41.97
2023-01-09T21:40:39.187Z,39.08
2023-01-09T21:43:20.043Z,36.33
2023-01-09T21:46:01.240Z,39.27
2023-01-09T21:48:24.122Z,39.63
2023-01-09T21:50:46.696Z,39.58
2023-01-09T21:53:09.458Z,40.13
2023-01-09T21:55:32.248Z,38.58
2023-01-09T21:57:58.502Z,42.07
2023-01-09T22:00:21.352Z,39.03
2023-01-09T22:02:45.393Z,39.85
2023-01-09T22:05:08.072Z,35.30
2023-01-09T22:07:51.500Z,34.70
2023-01-09T22:10:15.078Z,38.70
2023-01-09T22:12:37.803Z,36.20
2023-01-09T22:15:00.414Z,36.28
2023-01-09T22:17:23.061Z,37.88
2023-01-09T22:19:46.017Z,39.95
2023-01-09T22:22:08.621Z,39.33
2023-01-09T22:24:31.310Z,36.22
2023-01-09T22:26:53.944Z,38.00
2023-01-09T22:29:16.584Z,35.28
2023-01-09T22:31:40.171Z,38.63
2023-01-09T22:34:02.808Z,34.43
2023-01-09T22:36:27.934Z,33.15
2023-01-09T22:38:54.178Z,33.85
2023-01-09T22:41:16.802Z,32.90
2023-01-09T22:43:39.696Z,32.08
2023-01-09T22:46:05.271Z,29.80
2023-01-09T22:48:31.657Z,32.83
2023-01-09T22:50:58.631Z,31.58
2023-01-09T22:53:21.211Z,33.78
2023-01-09T22:55:43.778Z,30.25
2023-01-09T22:58:06.431Z,30.90
2023-01-09T23:00:29.079Z,31.90
2023-01-09T23:02:51.930Z,30.88
2023-01-09T23:05:15.073Z,28.80
2023-01-09T23:07:37.698Z,28.67
2023-01-09T23:10:02.072Z,28.33
2023-01-09T23:12:24.890Z,29.75
2023-01-09T23:14:47.486Z,28.05
2023-01-09T23:17:13.096Z,28.52
2023-01-09T23:19:36.479Z,27.90
2023-01-09T23:22:17.671Z,29.40
2023-01-09T23:24:58.906Z,28.55
2023-01-09T23:27:40.581Z,29.30
2023-01-09T23:30:21.942Z,29.25
2023-01-09T23:32:45.047Z,27.45
2023-01-09T23:35:07.857Z,26.17
2023-01-09T23:37:30.537Z,27.77
2023-01-09T23:39:53.238Z,25.70
2023-01-09T23:42:34.785Z,23.83
2023-01-09T23:44:57.469Z,24.33
2023-01-09T23:47:20.249Z,26.87
2023-01-09T23:49:43.140Z,27.00
2023-01-09T23:52:06.692Z,25.52
2023-01-09T23:54:29.304Z,28.55
2023-01-09T23:56:53.447Z,25.58
2023-01-09T23:59:17.643Z,24.27
